createdAt,value
2022-11-20T00:00:48.961Z,97839.70
2022-11-20T00:03:19.337Z,97838.69
2022-11-20T00:05:49.874Z,97830.91
2022-11-20T00:08:20.207Z,97833.66
2022-11-20T00:10:50.672Z,97837.77
2022-11-20T00:13:21.056Z,97837.09
2022-11-20T00:15:52.908Z,97837.75
2022-11-20T00:18:23.260Z,97838.56
2022-11-20T00:20:53.666Z,97837.21
2022-11-20T00:23:24.116Z,97843.55
2022-11-20T00:25:54.445Z,97847.01
2022-11-20T00:28:24.797Z,97850.95
2022-11-20T00:30:57.155Z,97836.45
2022-11-20T00:33:27.619Z,97829.28
2022-11-20T00:36:03.250Z,97820.05
2022-11-20T00:38:33.908Z,97812.20
2022-11-20T00:41:05.531Z,97818.37
2022-11-20T00:43:36.357Z,97818.73
2022-11-20T00:46:08.971Z,97810.93
2022-11-20T00:48:39.612Z,97802.05
2022-11-20T00:51:10.176Z,97804.09
2022-11-20T00:53:40.559Z,97805.95
2022-11-20T00:56:13.540Z,97808.50
2022-11-20T00:58:42.846Z,97809.70
2022-11-20T01:01:15.246Z,97810.22
2022-11-20T01:03:47.166Z,97809.02
2022-11-20T01:06:19.324Z,97813.95
2022-11-20T01:08:51.079Z,97805.75
2022-11-20T01:11:23.039Z,97809.83
2022-11-20T01:13:55.395Z,97806.88
2022-11-20T01:16:27.000Z,97806.81
2022-11-20T01:18:58.334Z,97804.75
2022-11-20T01:21:30.096Z,97809.36
2022-11-20T01:24:01.032Z,97809.35
2022-11-20T01:26:33.230Z,97810.36
2022-11-20T01:29:04.547Z,97810.52
2022-11-20T01:31:36.339Z,97812.02
2022-11-20T01:34:09.838Z,97808.40
2022-11-20T01:36:42.222Z,97809.41
2022-11-20T01:39:15.193Z,97809.60
2022-11-20T01:42:08.353Z,97808.73
2022-11-20T01:44:58.170Z,97815.68
2022-11-20T01:47:31.564Z,97810.42
2022-11-20T01:50:06.744Z,97806.34
2022-11-20T01:52:40.248Z,97806.19
2022-11-20T01:55:13.532Z,97798.34
2022-11-20T01:57:44.428Z,97791.21
2022-11-20T02:00:18.234Z,97794.66
2022-11-20T02:02:52.012Z,97796.59
2022-11-20T02:05:27.617Z,97796.84
2022-11-20T02:07:59.603Z,97790.89
2022-11-20T02:10:30.893Z,97787.00
2022-11-20T02:13:18.612Z,97787.50
2022-11-20T02:15:49.027Z,97781.02
2022-11-20T02:18:21.273Z,97785.48
2022-11-20T02:20:54.656Z,97781.77
2022-11-20T02:23:28.976Z,97777.00
2022-11-20T02:26:00.842Z,97775.80
2022-11-20T02:28:31.278Z,97780.55
2022-11-20T02:31:01.629Z,97778.11
2022-11-20T02:33:32.090Z,97780.61
2022-11-20T02:36:02.452Z,97771.88
2022-11-20T02:38:32.828Z,97775.27
2022-11-20T02:41:03.219Z,97780.88
2022-11-20T02:43:33.820Z,97776.08
2022-11-20T02:46:04.716Z,97775.17
2022-11-20T02:48:35.172Z,97777.86
2022-11-20T02:51:06.295Z,97775.80
2022-11-20T02:53:36.758Z,97776.83
2022-11-20T02:56:08.451Z,97779.40
2022-11-20T02:58:38.940Z,97785.20
2022-11-20T03:01:09.450Z,97780.76
2022-11-20T03:03:39.951Z,97772.23
2022-11-20T03:06:10.637Z,97766.90
2022-11-20T03:08:41.137Z,97767.69
2022-11-20T03:11:12.241Z,97768.68
2022-11-20T03:13:43.029Z,97774.48
2022-11-20T03:16:15.692Z,97781.13
2022-11-20T03:18:46.861Z,97782.64
2022-11-20T03:21:17.679Z,97782.14
2022-11-20T03:23:48.179Z,97779.90
2022-11-20T03:26:20.730Z,97782.75
2022-11-20T03:28:52.320Z,97775.88
2022-11-20T03:31:24.584Z,97776.04
2022-11-20T03:33:55.060Z,97780.18
2022-11-20T03:36:26.462Z,97778.52
2022-11-20T03:38:58.015Z,97772.41
2022-11-20T03:41:29.725Z,97775.15
2022-11-20T03:44:01.447Z,97771.91
2022-11-20T03:46:32.045Z,97775.10
2022-11-20T03:49:02.486Z,97778.86
2022-11-20T03:51:34.308Z,97765.27
2022-11-20T03:54:06.391Z,97758.82
2022-11-20T03:56:38.190Z,97750.49
2022-11-20T03:59:09.022Z,97749.63
2022-11-20T04:01:43.194Z,97753.38
2022-11-20T04:04:18.461Z,97753.18
2022-11-20T04:06:50.345Z,97768.69
2022-11-20T04:09:23.667Z,97769.74
2022-11-20T04:11:54.388Z,97762.64
2022-11-20T04:14:27.124Z,97754.45
2022-11-20T04:16:58.832Z,97749.52
2022-11-20T04:19:30.487Z,97748.53
2022-11-20T04:22:02.873Z,97743.77
2022-11-20T04:24:34.950Z,97747.56
2022-11-20T04:27:08.087Z,97742.26
2022-11-20T04:29:40.225Z,97743.24
2022-11-20T04:32:12.426Z,97743.06
2022-11-20T04:34:44.702Z,97744.63
2022-11-20T04:37:16.288Z,97744.47
2022-11-20T04:39:47.704Z,97746.17
2022-11-20T04:42:31.444Z,97744.98
2022-11-20T04:45:04.003Z,97744.80
2022-11-20T04:47:37.187Z,97742.05
2022-11-20T04:50:10.315Z,97735.08
2022-11-20T04:52:42.440Z,97731.16
2022-11-20T04:55:15.809Z,97733.40
2022-11-20T04:57:48.474Z,97740.20
2022-11-20T05:07:34.417Z,97732.86
2022-11-20T05:10:05.487Z,97734.39
2022-11-20T05:12:36.161Z,97735.23
2022-11-20T05:15:07.451Z,97735.92
2022-11-20T05:17:37.946Z,97733.34
2022-11-20T05:20:10.036Z,97731.46
2022-11-20T05:22:40.505Z,97731.07
2022-11-20T05:25:11.540Z,97736.14
2022-11-20T05:27:41.886Z,97733.09
2022-11-20T05:30:14.914Z,97730.88
2022-11-20T05:32:43.782Z,97728.18
2022-11-20T05:35:14.146Z,97731.08
2022-11-20T05:37:44.519Z,97740.98
2022-11-20T05:40:16.231Z,97728.35
2022-11-20T05:42:46.681Z,97737.39
2022-11-20T05:45:17.152Z,97735.56
2022-11-20T05:47:47.724Z,97738.15
2022-11-20T05:50:18.410Z,97733.05
2022-11-20T05:52:48.738Z,97731.17
2022-11-20T05:55:19.312Z,97724.51
2022-11-20T05:57:49.712Z,97715.79
2022-11-20T06:00:20.899Z,97716.46
2022-11-20T06:02:51.405Z,97720.75
2022-11-20T06:05:22.019Z,97722.11
2022-11-20T06:07:52.408Z,97718.52
2022-11-20T06:10:22.764Z,97722.77
2022-11-20T06:12:53.271Z,97726.33
2022-11-20T06:15:23.712Z,97724.44
2022-11-20T06:17:56.754Z,97727.17
2022-11-20T06:20:25.604Z,97730.77
2022-11-20T06:22:56.575Z,97731.44
2022-11-20T06:25:26.950Z,97728.36
2022-11-20T06:27:57.337Z,97712.13
2022-11-20T06:30:27.819Z,97709.20
2022-11-20T06:32:58.213Z,97719.78
2022-11-20T06:35:28.645Z,97723.56
2022-11-20T06:37:59.290Z,97729.55
2022-11-20T06:40:29.620Z,97729.55
2022-11-20T06:42:59.992Z,97726.50
2022-11-20T06:45:30.371Z,97725.27
2022-11-20T06:48:01.941Z,97727.29
2022-11-20T06:50:32.442Z,97725.23
2022-11-20T06:53:05.137Z,97724.93
2022-11-20T06:55:35.564Z,97718.80
2022-11-20T06:58:06.003Z,97723.41
2022-11-20T07:00:36.408Z,97724.30
2022-11-20T07:03:07.936Z,97725.31
2022-11-20T07:05:39.327Z,97721.17
2022-11-20T07:08:10.003Z,97716.39
2022-11-20T07:10:40.465Z,97723.40
2022-11-20T07:13:10.866Z,97725.14
2022-11-20T07:15:41.253Z,97726.20
2022-11-20T07:18:12.161Z,97729.08
2022-11-20T07:20:42.488Z,97733.83
2022-11-20T07:23:12.879Z,97733.14
2022-11-20T07:25:43.280Z,97734.67
2022-11-20T07:28:14.880Z,97737.95
2022-11-20T07:30:45.232Z,97738.84
2022-11-20T07:33:15.649Z,97737.83
2022-11-20T07:35:46.026Z,97734.59
2022-11-20T07:38:16.602Z,97731.70
2022-11-20T07:44:13.838Z,97735.00
2022-11-20T07:46:44.285Z,97734.20
2022-11-20T07:49:14.691Z,97731.73
2022-11-20T07:51:46.969Z,97734.86
2022-11-20T07:54:19.381Z,97736.96
2022-11-20T07:56:49.940Z,97737.85
2022-11-20T07:59:20.581Z,97742.00
2022-11-20T08:01:51.733Z,97744.44
2022-11-20T08:04:22.595Z,97746.04
2022-11-20T08:06:53.610Z,97747.31
2022-11-20T08:09:24.587Z,97745.14
2022-11-20T08:12:12.377Z,97751.84
2022-11-20T08:14:43.058Z,97756.48
2022-11-20T08:17:13.503Z,97751.89
2022-11-20T08:19:43.927Z,97755.52
2022-11-20T08:22:14.681Z,97754.20
2022-11-20T08:24:45.084Z,97763.98
2022-11-20T08:27:15.491Z,97757.86
2022-11-20T08:29:48.582Z,97764.38
2022-11-20T08:32:18.914Z,97773.62
2022-11-20T08:34:49.303Z,97770.73
2022-11-20T08:37:19.691Z,97770.27
2022-11-20T08:39:50.015Z,97771.70
2022-11-20T08:42:20.399Z,97767.15
2022-11-20T08:44:50.755Z,97773.17
2022-11-20T08:47:21.163Z,97772.67
2022-11-20T08:49:51.482Z,97769.77
2022-11-20T08:52:21.842Z,97766.69
2022-11-20T08:54:52.225Z,97768.40
2022-11-20T08:57:22.750Z,97767.21
2022-11-20T09:00:09.192Z,97768.06
2022-11-20T09:02:39.892Z,97767.38
2022-11-20T09:05:10.791Z,97771.14
2022-11-20T09:07:42.152Z,97775.27
2022-11-20T09:10:28.408Z,97774.91
2022-11-20T09:12:59.005Z,97780.04
2022-11-20T09:15:29.494Z,97784.44
2022-11-20T09:18:02.111Z,97784.75
2022-11-20T09:20:33.309Z,97786.25
2022-11-20T09:23:03.730Z,97781.55
2022-11-20T09:25:34.085Z,97781.54
2022-11-20T09:28:04.579Z,97774.81
2022-11-20T09:30:35.070Z,97777.01
2022-11-20T09:33:07.882Z,97777.52
2022-11-20T09:35:38.502Z,97781.45
2022-11-20T09:38:11.536Z,97777.02
2022-11-20T09:40:41.093Z,97780.75
2022-11-20T09:43:16.346Z,97777.45
2022-11-20T09:46:00.772Z,97769.88
2022-11-20T09:48:57.265Z,97768.38
2022-11-20T09:51:36.759Z,97774.55
2022-11-20T09:54:18.993Z,97771.11
2022-11-20T09:56:51.947Z,97768.88
2022-11-20T09:59:37.270Z,97768.19
2022-11-20T10:02:18.705Z,97767.73
2022-11-20T10:04:54.174Z,97766.92
2022-11-20T10:07:34.075Z,97769.54
2022-11-20T10:10:04.893Z,97762.42
2022-11-20T10:12:50.101Z,97764.02
2022-11-20T10:15:29.796Z,97769.40
2022-11-20T10:18:11.371Z,97766.69
2022-11-20T10:20:48.464Z,97761.38
2022-11-20T10:23:41.239Z,97758.65
2022-11-20T10:26:22.760Z,97753.36
2022-11-20T10:29:07.536Z,97752.82
2022-11-20T10:31:40.405Z,97752.98
2022-11-20T10:34:22.599Z,97750.76
2022-11-20T10:36:56.547Z,97746.70
2022-11-20T10:39:33.478Z,97738.67
2022-11-20T10:42:06.706Z,97738.86
2022-11-20T10:44:56.647Z,97740.95
2022-11-20T10:47:29.167Z,97738.92
2022-11-20T10:50:03.635Z,97740.13
2022-11-20T10:52:37.940Z,97737.77
2022-11-20T10:55:19.676Z,97729.73
2022-11-20T10:57:56.031Z,97730.27
2022-11-20T11:00:26.561Z,97734.05
2022-11-20T11:03:03.281Z,97739.38
2022-11-20T11:05:38.478Z,97739.89
2022-11-20T11:08:14.806Z,97738.70
2022-11-20T11:10:52.969Z,97739.05
2022-11-20T11:13:24.787Z,97738.20
2022-11-20T11:15:55.573Z,97734.77
2022-11-20T11:18:30.868Z,97730.31
2022-11-20T11:21:03.643Z,97727.56
2022-11-20T11:23:37.155Z,97728.58
2022-11-20T11:26:09.631Z,97723.09
2022-11-20T11:28:40.264Z,97722.23
2022-11-20T11:31:10.777Z,97713.98
2022-11-20T11:33:41.211Z,97714.50
2022-11-20T11:36:22.301Z,97713.80
2022-11-20T11:38:54.923Z,97710.02
2022-11-20T11:41:29.533Z,97702.44
2022-11-20T11:44:19.803Z,97699.30
2022-11-20T11:46:55.022Z,97691.49
2022-11-20T11:49:25.931Z,97691.27
2022-11-20T11:52:06.513Z,97692.28
2022-11-20T11:54:40.846Z,97686.27
2022-11-20T11:57:18.148Z,97685.84
2022-11-20T11:59:59.901Z,97680.89
2022-11-20T12:02:38.899Z,97675.96
2022-11-20T12:05:17.778Z,97678.80
2022-11-20T12:07:50.385Z,97665.38
2022-11-20T12:10:24.075Z,97661.36
2022-11-20T12:13:03.023Z,97660.30
2022-11-20T12:15:35.650Z,97657.29
2022-11-20T12:18:11.812Z,97655.51
2022-11-20T12:20:47.687Z,97662.21
2022-11-20T12:23:28.570Z,97665.15
2022-11-20T12:26:02.906Z,97666.77
2022-11-20T12:28:42.073Z,97669.96
2022-11-20T12:31:28.532Z,97673.15
2022-11-20T12:34:19.090Z,97667.08
2022-11-20T12:36:54.378Z,97668.70
2022-11-20T12:39:34.095Z,97664.47
2022-11-20T12:42:47.395Z,97661.58
2022-11-20T12:45:32.863Z,97661.77
2022-11-20T12:48:18.523Z,97659.89
2022-11-20T12:51:13.942Z,97656.33
2022-11-20T12:53:51.197Z,97656.69
2022-11-20T12:56:29.824Z,97656.04
2022-11-20T12:59:09.574Z,97659.85
2022-11-20T13:01:45.867Z,97660.91
2022-11-20T13:04:34.976Z,97655.60
2022-11-20T13:07:07.567Z,97655.28
2022-11-20T13:09:42.485Z,97649.80
2022-11-20T13:12:16.497Z,97649.64
2022-11-20T13:14:52.440Z,97647.58
2022-11-20T13:17:26.677Z,97640.85
2022-11-20T13:19:59.627Z,97639.80
2022-11-20T13:22:28.978Z,97638.92
2022-11-20T13:24:59.399Z,97637.39
2022-11-20T13:27:31.902Z,97632.59
2022-11-20T13:30:19.148Z,97628.80
2022-11-20T13:32:54.922Z,97621.02
2022-11-20T13:35:34.166Z,97621.29
2022-11-20T13:38:10.884Z,97621.93
2022-11-20T13:40:52.297Z,97621.09
2022-11-20T13:43:28.960Z,97620.09
2022-11-20T13:46:04.689Z,97620.32
2022-11-20T13:48:40.623Z,97619.00
2022-11-20T13:51:26.697Z,97622.46
2022-11-20T13:54:22.155Z,97616.67
2022-11-20T13:57:01.683Z,97616.73
2022-11-20T13:59:42.125Z,97610.61
2022-11-20T14:02:17.154Z,97611.21
2022-11-20T14:04:50.611Z,97616.91
2022-11-20T14:07:22.758Z,97615.05
2022-11-20T14:09:57.458Z,97614.56
2022-11-20T14:12:32.599Z,97607.74
2022-11-20T14:15:03.432Z,97604.33
2022-11-20T14:17:36.431Z,97601.23
2022-11-20T14:20:06.345Z,97600.39
2022-11-20T14:22:36.806Z,97593.89
2022-11-20T14:25:22.474Z,97586.88
2022-11-20T14:27:55.359Z,97588.05
2022-11-20T14:30:27.157Z,97585.00
2022-11-20T14:33:02.573Z,97574.21
2022-11-20T14:35:36.631Z,97571.84
2022-11-20T14:38:14.047Z,97577.33
2022-11-20T14:40:44.584Z,97575.94
2022-11-20T14:43:24.989Z,97580.02
2022-11-20T14:45:59.499Z,97581.39
2022-11-20T14:48:33.650Z,97574.56
2022-11-20T14:51:04.188Z,97557.80
2022-11-20T14:53:34.593Z,97555.25
2022-11-20T14:56:05.755Z,97560.36
2022-11-20T14:58:37.106Z,97553.84
2022-11-20T15:01:09.753Z,97550.09
2022-11-20T15:03:43.390Z,97546.34
2022-11-20T15:06:16.467Z,97553.04
2022-11-20T15:08:56.637Z,97547.73
2022-11-20T15:11:34.019Z,97544.64
2022-11-20T15:14:09.690Z,97544.64
2022-11-20T15:16:40.838Z,97545.33
2022-11-20T15:19:19.713Z,97538.46
2022-11-20T15:21:53.039Z,97539.84
2022-11-20T15:24:26.113Z,97544.14
2022-11-20T15:26:59.264Z,97540.71
2022-11-20T15:29:29.729Z,97539.16
2022-11-20T15:32:00.861Z,97540.52
2022-11-20T15:34:33.631Z,97536.06
2022-11-20T15:37:05.322Z,97532.82
2022-11-20T15:39:38.037Z,97530.61
2022-11-20T15:42:09.402Z,97527.38
2022-11-20T15:44:40.922Z,97526.16
2022-11-20T15:47:13.096Z,97528.20
2022-11-20T15:49:44.788Z,97521.85
2022-11-20T15:52:17.126Z,97521.16
2022-11-20T15:54:48.821Z,97517.73
2022-11-20T15:57:20.962Z,97516.55
2022-11-20T15:59:53.099Z,97510.55
2022-11-20T16:06:48.119Z,97494.21
2022-11-20T16:09:18.477Z,97494.73
2022-11-20T16:11:48.815Z,97489.30
2022-11-20T16:14:36.853Z,97484.36
2022-11-20T16:17:07.547Z,97486.95
2022-11-20T16:19:37.956Z,97483.34
2022-11-20T16:22:08.442Z,97482.33
2022-11-20T16:24:38.843Z,97477.38
2022-11-20T16:27:09.324Z,97474.12
2022-11-20T16:29:39.803Z,97467.98
2022-11-20T16:32:10.962Z,97462.35
2022-11-20T16:34:41.323Z,97459.27
2022-11-20T16:37:11.988Z,97454.98
2022-11-20T16:39:42.444Z,97451.36
2022-11-20T16:42:12.848Z,97449.81
2022-11-20T16:44:43.348Z,97449.45
2022-11-20T16:47:13.793Z,97447.07
2022-11-20T16:49:44.357Z,97447.06
2022-11-20T16:52:14.820Z,97445.86
2022-11-20T16:54:45.315Z,97448.77
2022-11-20T16:57:15.727Z,97451.33
2022-11-20T16:59:46.132Z,97447.21
2022-11-20T17:02:16.691Z,97435.40
2022-11-20T17:04:47.155Z,97434.73
2022-11-20T17:07:17.716Z,97434.38
2022-11-20T17:09:48.327Z,97428.21
2022-11-20T17:12:21.937Z,97428.02
2022-11-20T17:14:52.412Z,97424.42
2022-11-20T17:17:22.911Z,97419.80
2022-11-20T17:19:53.351Z,97413.80
2022-11-20T17:22:23.718Z,97413.62
2022-11-20T17:24:54.180Z,97404.86
2022-11-20T17:27:24.547Z,97404.52
2022-11-20T17:29:57.737Z,97398.84
2022-11-20T17:32:28.158Z,97392.52
2022-11-20T17:34:59.183Z,97390.13
2022-11-20T17:37:29.656Z,97388.56
2022-11-20T17:40:00.424Z,97390.77
2022-11-20T17:42:36.636Z,97390.77
2022-11-20T17:45:08.354Z,97387.16
2022-11-20T17:47:38.955Z,97378.41
2022-11-20T17:50:10.730Z,97378.58
2022-11-20T17:52:41.142Z,97371.70
2022-11-20T17:55:12.862Z,97372.88
2022-11-20T17:57:56.793Z,97364.63
2022-11-20T18:00:28.317Z,97360.49
2022-11-20T18:02:59.281Z,97352.60
2022-11-20T18:05:30.171Z,97352.92
2022-11-20T18:08:00.793Z,97353.23
2022-11-20T18:10:33.418Z,97347.04
2022-11-20T18:13:03.786Z,97343.08
2022-11-20T18:15:34.196Z,97339.29
2022-11-20T18:18:04.676Z,97333.98
2022-11-20T18:20:39.633Z,97329.88
2022-11-20T18:23:10.574Z,97326.80
2022-11-20T18:25:41.051Z,97317.20
2022-11-20T18:28:11.387Z,97315.30
2022-11-20T18:30:41.782Z,97313.71
2022-11-20T18:33:12.257Z,97308.06
2022-11-20T18:35:43.216Z,97304.46
2022-11-20T18:38:13.557Z,97299.34
2022-11-20T18:40:43.996Z,97295.54
2022-11-20T18:43:31.979Z,97292.13
2022-11-20T18:46:07.933Z,97289.85
2022-11-20T18:48:38.740Z,97283.66
2022-11-20T18:51:11.861Z,97281.11
2022-11-20T18:53:47.174Z,97276.16
2022-11-20T18:56:18.028Z,97274.60
2022-11-20T18:58:48.480Z,97269.78
2022-11-20T19:01:18.965Z,97269.24
2022-11-20T19:03:49.412Z,97264.79
2022-11-20T19:06:19.924Z,97261.36
2022-11-20T19:08:50.798Z,97260.17
2022-11-20T19:11:21.241Z,97261.35
2022-11-20T19:13:52.199Z,97256.86
2022-11-20T19:16:23.472Z,97256.48
2022-11-20T19:18:56.391Z,97255.42
2022-11-20T19:21:27.957Z,97259.66
2022-11-20T19:23:59.619Z,97254.16
2022-11-20T19:26:30.899Z,97246.09
2022-11-20T19:29:01.254Z,97246.75
2022-11-20T19:31:31.782Z,97244.69
2022-11-20T19:34:03.455Z,97243.65
2022-11-20T19:36:35.428Z,97237.19
2022-11-20T19:39:08.903Z,97232.59
2022-11-20T19:41:40.607Z,97235.68
2022-11-20T19:44:13.909Z,97229.19
2022-11-20T19:46:44.756Z,97225.42
2022-11-20T19:49:15.979Z,97218.40
2022-11-20T19:51:49.352Z,97216.88
2022-11-20T19:54:19.839Z,97208.30
2022-11-20T19:56:50.618Z,97209.67
2022-11-20T19:59:21.370Z,97209.67
2022-11-20T20:01:52.293Z,97206.93
2022-11-20T20:04:22.801Z,97204.20
2022-11-20T20:06:53.268Z,97206.44
2022-11-20T20:09:26.323Z,97205.41
2022-11-20T20:11:57.260Z,97198.55
2022-11-20T20:14:27.733Z,97200.09
2022-11-20T20:16:58.262Z,97195.30
2022-11-20T20:19:28.857Z,97196.52
2022-11-20T20:22:00.599Z,97186.06
2022-11-20T20:24:30.949Z,97187.94
2022-11-20T20:27:01.451Z,97187.42
2022-11-20T20:29:31.951Z,97192.06
2022-11-20T20:32:02.396Z,97192.09
2022-11-20T20:34:33.274Z,97189.85
2022-11-20T20:37:05.178Z,97191.91
2022-11-20T20:39:35.683Z,97190.68
2022-11-20T20:42:06.337Z,97190.67
2022-11-20T20:44:54.476Z,97196.66
2022-11-20T20:47:25.057Z,97194.77
2022-11-20T20:49:55.531Z,97192.36
2022-11-20T20:52:27.321Z,97190.45
2022-11-20T20:54:58.168Z,97186.85
2022-11-20T20:57:28.733Z,97192.84
2022-11-20T20:59:59.087Z,97189.08
2022-11-20T21:02:29.596Z,97186.16
2022-11-20T21:05:00.525Z,97186.52
2022-11-20T21:07:30.955Z,97188.05
2022-11-20T21:10:01.385Z,97186.98
2022-11-20T21:12:31.867Z,97191.80
2022-11-20T21:15:02.257Z,97190.23
2022-11-20T21:17:32.650Z,97189.39
2022-11-20T21:20:23.229Z,97187.31
2022-11-20T21:22:53.632Z,97188.86
2022-11-20T21:25:23.994Z,97190.20
2022-11-20T21:27:54.471Z,97192.58
2022-11-20T21:30:24.893Z,97186.05
2022-11-20T21:32:55.288Z,97188.13
2022-11-20T21:35:25.720Z,97187.98
2022-11-20T21:37:56.436Z,97183.02
2022-11-20T21:40:26.862Z,97184.74
2022-11-20T21:42:57.596Z,97182.00
2022-11-20T21:45:27.996Z,97182.16
2022-11-20T21:47:58.860Z,97183.34
2022-11-20T21:50:29.915Z,97184.05
2022-11-20T21:53:00.326Z,97180.97
2022-11-20T21:55:30.802Z,97186.77
2022-11-20T21:58:01.227Z,97182.68
2022-11-20T22:00:31.627Z,97176.50
2022-11-20T22:03:02.013Z,97177.84
2022-11-20T22:05:32.485Z,97181.96
2022-11-20T22:08:02.967Z,97174.77
2022-11-20T22:10:33.563Z,97165.89
2022-11-20T22:13:18.181Z,97166.06
2022-11-20T22:16:00.715Z,97165.71
2022-11-20T22:18:31.722Z,97170.84
2022-11-20T22:21:07.694Z,97170.48
2022-11-20T22:23:38.297Z,97172.52
2022-11-20T22:26:09.634Z,97166.80
2022-11-20T22:28:40.449Z,97164.91
2022-11-20T22:31:12.013Z,97161.51
2022-11-20T22:33:42.998Z,97158.42
2022-11-20T22:36:14.700Z,97157.60
2022-11-20T22:38:45.218Z,97160.88
2022-11-20T22:41:16.890Z,97161.08
2022-11-20T22:43:48.092Z,97157.85
2022-11-20T22:46:19.576Z,97158.43
2022-11-20T22:48:53.709Z,97152.31
2022-11-20T22:51:26.073Z,97152.35
2022-11-20T22:53:56.667Z,97150.52
2022-11-20T22:56:27.271Z,97145.94
2022-11-20T22:58:57.788Z,97152.84
2022-11-20T23:01:30.937Z,97153.27
2022-11-20T23:04:03.207Z,97154.02
2022-11-20T23:06:35.113Z,97161.27
2022-11-20T23:09:06.776Z,97168.14
2022-11-20T23:11:37.504Z,97168.34
2022-11-20T23:14:09.203Z,97170.77
2022-11-20T23:16:39.629Z,97169.44
2022-11-20T23:19:14.051Z,97179.41
2022-11-20T23:21:45.287Z,97174.80
2022-11-20T23:24:15.730Z,97182.67
2022-11-20T23:26:48.041Z,97182.00
2022-11-20T23:29:18.603Z,97175.13
2022-11-20T23:31:49.097Z,97177.67
2022-11-20T23:34:19.730Z,97172.73
2022-11-20T23:36:50.080Z,97166.23
2022-11-20T23:39:20.493Z,97170.34
2022-11-20T23:41:50.924Z,97168.95
2022-11-20T23:44:23.445Z,97166.07
2022-11-20T23:46:53.834Z,97166.91
2022-11-20T23:49:24.235Z,97172.06
2022-11-20T23:51:54.597Z,97169.89
2022-11-20T23:54:25.304Z,97170.77
2022-11-20T23:56:56.009Z,97169.92
2022-11-20T23:59:26.466Z,97170.27
